sensor_id;sensor_type;location;lat;lon;timestamp;pressure;altitude;pressure_sealevel;temperature;humidity
69127;BME280;56688;50.234;19.292;2023-04-02T00:01:20;97446.88;;;10.01;81.89
69127;BME280;56688;50.234;19.292;2023-04-02T00:09:01;97459.05;;;10.03;81.93
69127;BME280;56688;50.234;19.292;2023-04-02T00:11:35;97458.64;;;10.03;82.03
69127;BME280;56688;50.234;19.292;2023-04-02T00:14:05;97460.28;;;10.03;81.89
69127;BME280;56688;50.234;19.292;2023-04-02T00:16:38;97463.98;;;10.02;81.73
69127;BME280;56688;50.234;19.292;2023-04-02T00:19:12;97464.08;;;10.00;81.94
69127;BME280;56688;50.234;19.292;2023-04-02T00:21:42;97467.13;;;9.97;81.93
69127;BME280;56688;50.234;19.292;2023-04-02T00:24:16;97467.69;;;9.96;82.00
69127;BME280;56688;50.234;19.292;2023-04-02T00:26:45;97467.11;;;9.95;82.03
69127;BME280;56688;50.234;19.292;2023-04-02T00:29:14;97468.27;;;9.95;82.05
69127;BME280;56688;50.234;19.292;2023-04-02T00:31:44;97464.63;;;9.98;82.02
69127;BME280;56688;50.234;19.292;2023-04-02T00:34:23;97468.40;;;9.99;82.24
69127;BME280;56688;50.234;19.292;2023-04-02T00:36:52;97465.73;;;10.00;82.19
69127;BME280;56688;50.234;19.292;2023-04-02T00:39:29;97469.41;;;10.00;81.98
69127;BME280;56688;50.234;19.292;2023-04-02T00:41:58;97470.61;;;9.97;82.02
69127;BME280;56688;50.234;19.292;2023-04-02T00:44:36;97470.89;;;9.96;82.11
69127;BME280;56688;50.234;19.292;2023-04-02T00:47:21;97472.17;;;9.96;82.08
69127;BME280;56688;50.234;19.292;2023-04-02T00:49:56;97473.54;;;9.97;82.25
69127;BME280;56688;50.234;19.292;2023-04-02T00:52:28;97470.37;;;9.98;82.06
69127;BME280;56688;50.234;19.292;2023-04-02T00:55:03;97472.50;;;9.98;82.20
69127;BME280;56688;50.234;19.292;2023-04-02T00:57:31;97475.77;;;10.01;82.17
69127;BME280;56688;50.234;19.292;2023-04-02T01:00:19;97476.48;;;9.99;82.16
69127;BME280;56688;50.234;19.292;2023-04-02T01:05:48;97481.48;;;10.00;82.05
69127;BME280;56688;50.234;19.292;2023-04-02T01:19:00;97489.23;;;10.05;81.78
69127;BME280;56688;50.234;19.292;2023-04-02T01:24:02;97491.32;;;10.02;81.44
69127;BME280;56688;50.234;19.292;2023-04-02T01:26:45;97493.54;;;10.03;81.37
69127;BME280;56688;50.234;19.292;2023-04-02T01:32:00;97487.79;;;10.04;81.29
69127;BME280;56688;50.234;19.292;2023-04-02T01:34:28;97486.24;;;10.01;81.17
69127;BME280;56688;50.234;19.292;2023-04-02T01:45:34;97494.99;;;9.96;80.73
69127;BME280;56688;50.234;19.292;2023-04-02T01:48:20;97495.98;;;9.93;80.64
69127;BME280;56688;50.234;19.292;2023-04-02T01:50:52;97495.70;;;9.87;80.60
69127;BME280;56688;50.234;19.292;2023-04-02T01:53:22;97497.77;;;9.85;80.63
69127;BME280;56688;50.234;19.292;2023-04-02T01:55:53;97500.20;;;9.85;80.83
69127;BME280;56688;50.234;19.292;2023-04-02T01:58:24;97497.77;;;9.84;80.74
69127;BME280;56688;50.234;19.292;2023-04-02T02:00:58;97500.29;;;9.84;80.82
69127;BME280;56688;50.234;19.292;2023-04-02T02:03:28;97501.59;;;9.84;80.66
69127;BME280;56688;50.234;19.292;2023-04-02T02:05:56;97507.70;;;9.82;80.69
69127;BME280;56688;50.234;19.292;2023-04-02T02:10:51;97510.46;;;9.77;80.63
69127;BME280;56688;50.234;19.292;2023-04-02T02:13:17;97512.36;;;9.75;80.59
69127;BME280;56688;50.234;19.292;2023-04-02T02:15:44;97512.39;;;9.73;80.63
69127;BME280;56688;50.234;19.292;2023-04-02T02:18:12;97514.86;;;9.74;80.65
69127;BME280;56688;50.234;19.292;2023-04-02T02:20:40;97515.23;;;9.75;81.04
69127;BME280;56688;50.234;19.292;2023-04-02T02:23:10;97516.71;;;9.76;80.95
69127;BME280;56688;50.234;19.292;2023-04-02T02:25:39;97515.06;;;9.76;80.77
69127;BME280;56688;50.234;19.292;2023-04-02T02:28:09;97511.92;;;9.73;80.82
69127;BME280;56688;50.234;19.292;2023-04-02T02:30:46;97514.23;;;9.72;80.68
69127;BME280;56688;50.234;19.292;2023-04-02T02:35:49;97521.44;;;9.67;80.81
69127;BME280;56688;50.234;19.292;2023-04-02T02:41:12;97523.19;;;9.62;81.02
69127;BME280;56688;50.234;19.292;2023-04-02T02:43:50;97526.35;;;9.63;81.01
69127;BME280;56688;50.234;19.292;2023-04-02T02:46:22;97529.67;;;9.64;81.00
69127;BME280;56688;50.234;19.292;2023-04-02T02:48:53;97537.18;;;9.62;81.09
69127;BME280;56688;50.234;19.292;2023-04-02T02:51:40;97536.03;;;9.61;81.06
69127;BME280;56688;50.234;19.292;2023-04-02T02:54:13;97538.38;;;9.62;81.19
69127;BME280;56688;50.234;19.292;2023-04-02T02:56:45;97541.23;;;9.63;81.12
69127;BME280;56688;50.234;19.292;2023-04-02T02:59:14;97544.52;;;9.63;81.09
69127;BME280;56688;50.234;19.292;2023-04-02T03:01:43;97543.21;;;9.62;81.00
69127;BME280;56688;50.234;19.292;2023-04-02T03:04:12;97547.35;;;9.63;80.98
69127;BME280;56688;50.234;19.292;2023-04-02T03:06:40;97551.09;;;9.62;81.02
69127;BME280;56688;50.234;19.292;2023-04-02T03:18:01;97554.31;;;9.59;80.86
69127;BME280;56688;50.234;19.292;2023-04-02T03:20:48;97552.83;;;9.60;80.88
69127;BME280;56688;50.234;19.292;2023-04-02T03:26:09;97547.80;;;9.56;80.46
69127;BME280;56688;50.234;19.292;2023-04-02T03:28:42;97551.05;;;9.53;80.57
69127;BME280;56688;50.234;19.292;2023-04-02T03:31:18;97558.45;;;9.53;80.71
69127;BME280;56688;50.234;19.292;2023-04-02T03:33:55;97560.91;;;9.53;80.70
69127;BME280;56688;50.234;19.292;2023-04-02T03:36:32;97563.40;;;9.54;80.81
69127;BME280;56688;50.234;19.292;2023-04-02T03:41:47;97565.21;;;9.54;80.90
69127;BME280;56688;50.234;19.292;2023-04-02T03:44:26;97568.93;;;9.51;80.63
69127;BME280;56688;50.234;19.292;2023-04-02T03:47:03;97574.80;;;9.48;80.75
69127;BME280;56688;50.234;19.292;2023-04-02T03:49:45;97578.65;;;9.47;80.78
69127;BME280;56688;50.234;19.292;2023-04-02T03:52:24;97579.30;;;9.47;80.96
69127;BME280;56688;50.234;19.292;2023-04-02T03:54:55;97582.42;;;9.48;81.07
69127;BME280;56688;50.234;19.292;2023-04-02T03:57:32;97585.13;;;9.50;81.11
69127;BME280;56688;50.234;19.292;2023-04-02T04:02:46;97590.91;;;9.47;80.75
69127;BME280;56688;50.234;19.292;2023-04-02T04:05:23;97594.32;;;9.46;80.68
69127;BME280;56688;50.234;19.292;2023-04-02T04:07:56;97595.06;;;9.45;80.86
69127;BME280;56688;50.234;19.292;2023-04-02T04:10:27;97599.45;;;9.46;80.62
69127;BME280;56688;50.234;19.292;2023-04-02T04:13:01;97601.13;;;9.46;80.61
69127;BME280;56688;50.234;19.292;2023-04-02T04:15:31;97600.31;;;9.47;80.51
69127;BME280;56688;50.234;19.292;2023-04-02T04:18:11;97604.73;;;9.46;80.52
69127;BME280;56688;50.234;19.292;2023-04-02T04:20:57;97608.02;;;9.43;80.35
69127;BME280;56688;50.234;19.292;2023-04-02T04:23:35;97607.19;;;9.38;80.17
69127;BME280;56688;50.234;19.292;2023-04-02T04:29:12;97616.77;;;8.90;79.88
69127;BME280;56688;50.234;19.292;2023-04-02T04:31:46;97623.19;;;8.59;80.86
69127;BME280;56688;50.234;19.292;2023-04-02T04:34:19;97623.58;;;8.37;81.85
69127;BME280;56688;50.234;19.292;2023-04-02T04:36:53;97633.64;;;8.25;83.00
69127;BME280;56688;50.234;19.292;2023-04-02T04:39:38;97634.56;;;8.16;83.41
69127;BME280;56688;50.234;19.292;2023-04-02T04:42:06;97634.63;;;8.10;84.12
69127;BME280;56688;50.234;19.292;2023-04-02T04:44:42;97634.75;;;8.05;84.74
69127;BME280;56688;50.234;19.292;2023-04-02T04:47:19;97632.09;;;7.98;84.79
69127;BME280;56688;50.234;19.292;2023-04-02T04:49:53;97639.44;;;7.96;85.44
69127;BME280;56688;50.234;19.292;2023-04-02T04:52:29;97640.11;;;7.92;85.76
69127;BME280;56688;50.234;19.292;2023-04-02T04:54:59;97639.27;;;7.90;85.96
69127;BME280;56688;50.234;19.292;2023-04-02T04:57:31;97642.45;;;7.90;86.32
69127;BME280;56688;50.234;19.292;2023-04-02T05:00:06;97645.88;;;7.93;86.55
69127;BME280;56688;50.234;19.292;2023-04-02T05:02:46;97647.25;;;7.90;86.66
69127;BME280;56688;50.234;19.292;2023-04-02T05:05:19;97649.11;;;7.90;86.78
69127;BME280;56688;50.234;19.292;2023-04-02T05:07:52;97655.31;;;7.88;87.00
69127;BME280;56688;50.234;19.292;2023-04-02T05:10:44;97657.48;;;7.88;86.96
69127;BME280;56688;50.234;19.292;2023-04-02T05:13:24;97660.13;;;7.89;86.95
69127;BME280;56688;50.234;19.292;2023-04-02T05:16:15;97660.21;;;7.90;87.04
69127;BME280;56688;50.234;19.292;2023-04-02T05:18:50;97660.99;;;7.95;87.74
69127;BME280;56688;50.234;19.292;2023-04-02T05:21:33;97664.77;;;8.06;88.12
69127;BME280;56688;50.234;19.292;2023-04-02T05:26:48;97671.95;;;8.05;86.81
69127;BME280;56688;50.234;19.292;2023-04-02T05:29:22;97675.98;;;8.01;86.87
69127;BME280;56688;50.234;19.292;2023-04-02T05:31:57;97678.17;;;7.98;86.88
69127;BME280;56688;50.234;19.292;2023-04-02T05:34:31;97681.29;;;7.96;87.38
69127;BME280;56688;50.234;19.292;2023-04-02T05:37:04;97684.69;;;7.96;87.52
69127;BME280;56688;50.234;19.292;2023-04-02T05:39:35;97684.64;;;8.04;88.37
69127;BME280;56688;50.234;19.292;2023-04-02T05:42:05;97681.38;;;8.15;88.37
69127;BME280;56688;50.234;19.292;2023-04-02T05:47:35;97687.02;;;8.26;87.79
69127;BME280;56688;50.234;19.292;2023-04-02T05:50:23;97689.67;;;8.29;87.65
69127;BME280;56688;50.234;19.292;2023-04-02T05:53:02;97687.34;;;8.34;87.48
69127;BME280;56688;50.234;19.292;2023-04-02T05:55:38;97688.18;;;8.40;87.39
69127;BME280;56688;50.234;19.292;2023-04-02T05:58:31;97689.52;;;8.50;87.63
69127;BME280;56688;50.234;19.292;2023-04-02T06:01:17;97694.72;;;8.63;87.42
69127;BME280;56688;50.234;19.292;2023-04-02T06:03:54;97700.39;;;8.71;86.88
69127;BME280;56688;50.234;19.292;2023-04-02T06:09:06;97703.45;;;8.80;85.39
69127;BME280;56688;50.234;19.292;2023-04-02T06:11:41;97708.03;;;8.82;84.93
69127;BME280;56688;50.234;19.292;2023-04-02T06:14:16;97719.11;;;8.83;84.45
69127;BME280;56688;50.234;19.292;2023-04-02T06:16:44;97717.88;;;8.84;83.98
69127;BME280;56688;50.234;19.292;2023-04-02T06:19:18;97727.61;;;8.81;83.64
69127;BME280;56688;50.234;19.292;2023-04-02T06:21:49;97735.83;;;8.80;83.32
69127;BME280;56688;50.234;19.292;2023-04-02T06:24:22;97738.42;;;8.75;82.18
69127;BME280;56688;50.234;19.292;2023-04-02T06:26:57;97744.28;;;8.66;81.18
69127;BME280;56688;50.234;19.292;2023-04-02T06:29:34;97755.19;;;8.64;80.63
69127;BME280;56688;50.234;19.292;2023-04-02T06:32:11;97756.89;;;8.59;80.14
69127;BME280;56688;50.234;19.292;2023-04-02T06:34:41;97770.62;;;8.50;79.75
69127;BME280;56688;50.234;19.292;2023-04-02T06:37:20;97770.98;;;8.42;79.34
69127;BME280;56688;50.234;19.292;2023-04-02T06:39:52;97778.68;;;8.36;79.49
69127;BME280;56688;50.234;19.292;2023-04-02T06:42:23;97782.04;;;8.34;79.14
69127;BME280;56688;50.234;19.292;2023-04-02T06:45:19;97790.64;;;8.26;78.33
69127;BME280;56688;50.234;19.292;2023-04-02T06:48:15;97794.27;;;8.11;78.02
69127;BME280;56688;50.234;19.292;2023-04-02T06:50:49;97803.38;;;8.01;77.76
69127;BME280;56688;50.234;19.292;2023-04-02T06:53:20;97804.27;;;7.92;77.29
69127;BME280;56688;50.234;19.292;2023-04-02T06:55:54;97811.80;;;7.83;77.05
69127;BME280;56688;50.234;19.292;2023-04-02T06:58:28;97815.19;;;7.74;76.95
69127;BME280;56688;50.234;19.292;2023-04-02T07:00:55;97822.23;;;7.64;76.73
69127;BME280;56688;50.234;19.292;2023-04-02T07:03:32;97823.59;;;7.54;76.91
69127;BME280;56688;50.234;19.292;2023-04-02T07:06:13;97828.45;;;7.48;77.28
69127;BME280;56688;50.234;19.292;2023-04-02T07:08:42;97836.08;;;7.43;77.34
69127;BME280;56688;50.234;19.292;2023-04-02T07:11:15;97839.70;;;7.39;77.24
69127;BME280;56688;50.234;19.292;2023-04-02T07:13:48;97846.13;;;7.37;77.53
69127;BME280;56688;50.234;19.292;2023-04-02T07:16:18;97851.30;;;7.33;77.80
69127;BME280;56688;50.234;19.292;2023-04-02T07:18:47;97855.30;;;7.27;77.57
69127;BME280;56688;50.234;19.292;2023-04-02T07:21:15;97863.27;;;7.22;77.39
69127;BME280;56688;50.234;19.292;2023-04-02T07:23:43;97869.70;;;7.16;77.35
69127;BME280;56688;50.234;19.292;2023-04-02T07:26:16;97878.15;;;7.10;76.87
69127;BME280;56688;50.234;19.292;2023-04-02T07:28:43;97884.42;;;7.02;77.12
69127;BME280;56688;50.234;19.292;2023-04-02T07:31:18;97892.52;;;6.98;77.31
69127;BME280;56688;50.234;19.292;2023-04-02T07:33:46;97894.48;;;6.93;77.52
69127;BME280;56688;50.234;19.292;2023-04-02T07:36:15;97899.77;;;6.89;77.59
69127;BME280;56688;50.234;19.292;2023-04-02T07:38:43;97906.10;;;6.87;78.05
69127;BME280;56688;50.234;19.292;2023-04-02T07:41:10;97909.98;;;6.82;77.78
69127;BME280;56688;50.234;19.292;2023-04-02T07:43:38;97915.38;;;6.77;77.51
69127;BME280;56688;50.234;19.292;2023-04-02T07:46:06;97919.30;;;6.74;77.95
69127;BME280;56688;50.234;19.292;2023-04-02T07:48:33;97926.23;;;6.69;77.95
69127;BME280;56688;50.234;19.292;2023-04-02T07:51:00;97930.30;;;6.64;77.99
69127;BME280;56688;50.234;19.292;2023-04-02T07:53:32;97934.28;;;6.60;78.02
69127;BME280;56688;50.234;19.292;2023-04-02T07:56:01;97939.49;;;6.58;78.12
69127;BME280;56688;50.234;19.292;2023-04-02T07:58:29;97948.55;;;6.55;78.28
69127;BME280;56688;50.234;19.292;2023-04-02T08:00:57;97947.70;;;6.53;78.28
69127;BME280;56688;50.234;19.292;2023-04-02T08:03:25;97953.41;;;6.54;78.32
69127;BME280;56688;50.234;19.292;2023-04-02T08:05:54;97953.83;;;6.55;78.34
69127;BME280;56688;50.234;19.292;2023-04-02T08:08:22;97955.93;;;6.57;78.67
69127;BME280;56688;50.234;19.292;2023-04-02T08:10:50;97965.41;;;6.57;78.32
69127;BME280;56688;50.234;19.292;2023-04-02T08:13:17;97970.06;;;6.57;78.31
69127;BME280;56688;50.234;19.292;2023-04-02T08:15:44;97972.52;;;6.51;78.76
69127;BME280;56688;50.234;19.292;2023-04-02T08:18:11;97978.15;;;6.48;79.05
69127;BME280;56688;50.234;19.292;2023-04-02T08:20:38;97982.25;;;6.46;79.03
69127;BME280;56688;50.234;19.292;2023-04-02T08:23:12;97984.64;;;6.46;79.20
69127;BME280;56688;50.234;19.292;2023-04-02T08:25:39;97993.04;;;6.41;79.01
69127;BME280;56688;50.234;19.292;2023-04-02T08:28:05;97998.52;;;6.42;79.12
69127;BME280;56688;50.234;19.292;2023-04-02T08:30:32;98000.77;;;6.44;78.96
69127;BME280;56688;50.234;19.292;2023-04-02T08:33:00;98008.13;;;6.46;78.90
69127;BME280;56688;50.234;19.292;2023-04-02T08:35:27;98010.64;;;6.47;78.56
69127;BME280;56688;50.234;19.292;2023-04-02T08:37:54;98012.45;;;6.48;78.43
69127;BME280;56688;50.234;19.292;2023-04-02T08:40:28;98016.36;;;6.48;78.53
69127;BME280;56688;50.234;19.292;2023-04-02T08:43:11;98021.14;;;6.48;78.29
69127;BME280;56688;50.234;19.292;2023-04-02T08:48:29;98033.00;;;6.50;77.73
69127;BME280;56688;50.234;19.292;2023-04-02T08:50:59;98036.12;;;6.50;77.54
69127;BME280;56688;50.234;19.292;2023-04-02T08:53:31;98040.23;;;6.50;77.39
69127;BME280;56688;50.234;19.292;2023-04-02T08:56:07;98041.97;;;6.48;76.74
69127;BME280;56688;50.234;19.292;2023-04-02T08:58:44;98044.67;;;6.51;76.33
69127;BME280;56688;50.234;19.292;2023-04-02T09:03:57;98052.38;;;6.52;75.74
69127;BME280;56688;50.234;19.292;2023-04-02T09:06:24;98056.95;;;6.51;75.71
69127;BME280;56688;50.234;19.292;2023-04-02T09:08:54;98065.08;;;6.49;75.20
69127;BME280;56688;50.234;19.292;2023-04-02T09:11:29;98065.98;;;6.44;74.83
69127;BME280;56688;50.234;19.292;2023-04-02T09:13:59;98068.23;;;6.41;75.05
69127;BME280;56688;50.234;19.292;2023-04-02T09:16:38;98074.96;;;6.38;74.99
69127;BME280;56688;50.234;19.292;2023-04-02T09:19:15;98079.21;;;6.33;74.94
69127;BME280;56688;50.234;19.292;2023-04-02T09:21:46;98083.98;;;6.26;75.07
69127;BME280;56688;50.234;19.292;2023-04-02T09:24:18;98087.80;;;6.17;75.31
69127;BME280;56688;50.234;19.292;2023-04-02T09:26:45;98094.65;;;6.14;75.67
69127;BME280;56688;50.234;19.292;2023-04-02T09:31:42;98103.41;;;6.11;76.28
69127;BME280;56688;50.234;19.292;2023-04-02T09:34:30;98111.64;;;6.12;76.24
69127;BME280;56688;50.234;19.292;2023-04-02T09:37:07;98111.55;;;6.15;76.74
69127;BME280;56688;50.234;19.292;2023-04-02T09:39:35;98117.16;;;6.18;76.77
69127;BME280;56688;50.234;19.292;2023-04-02T09:42:06;98121.30;;;6.21;76.31
69127;BME280;56688;50.234;19.292;2023-04-02T09:44:34;98126.02;;;6.23;76.55
69127;BME280;56688;50.234;19.292;2023-04-02T09:47:04;98129.75;;;6.24;76.34
69127;BME280;56688;50.234;19.292;2023-04-02T09:49:34;98135.60;;;6.27;76.60
69127;BME280;56688;50.234;19.292;2023-04-02T09:54:44;98137.47;;;6.31;76.10
69127;BME280;56688;50.234;19.292;2023-04-02T09:57:21;98140.12;;;6.31;76.19
69127;BME280;56688;50.234;19.292;2023-04-02T10:03:02;98145.67;;;6.34;76.35
69127;BME280;56688;50.234;19.292;2023-04-02T10:05:32;98151.70;;;6.37;76.46
69127;BME280;56688;50.234;19.292;2023-04-02T10:08:15;98152.52;;;6.41;76.67
69127;BME280;56688;50.234;19.292;2023-04-02T10:10:47;98153.39;;;6.44;76.81
69127;BME280;56688;50.234;19.292;2023-04-02T10:18:37;98166.76;;;6.43;76.62
69127;BME280;56688;50.234;19.292;2023-04-02T10:21:07;98165.39;;;6.46;76.10
69127;BME280;56688;50.234;19.292;2023-04-02T10:23:35;98171.73;;;6.46;75.79
69127;BME280;56688;50.234;19.292;2023-04-02T10:28:53;98181.70;;;6.47;75.71
69127;BME280;56688;50.234;19.292;2023-04-02T10:31:27;98180.51;;;6.47;75.53
69127;BME280;56688;50.234;19.292;2023-04-02T10:34:04;98185.04;;;6.49;75.92
69127;BME280;56688;50.234;19.292;2023-04-02T10:36:49;98187.84;;;6.46;75.73
69127;BME280;56688;50.234;19.292;2023-04-02T10:39:36;98190.63;;;6.43;76.05
69127;BME280;56688;50.234;19.292;2023-04-02T10:45:05;98197.84;;;6.34;76.01
69127;BME280;56688;50.234;19.292;2023-04-02T10:47:50;98204.95;;;6.32;76.31
69127;BME280;56688;50.234;19.292;2023-04-02T10:50:39;98206.55;;;6.30;76.27
69127;BME280;56688;50.234;19.292;2023-04-02T10:53:20;98213.90;;;6.26;76.53
69127;BME280;56688;50.234;19.292;2023-04-02T10:55:57;98220.18;;;6.26;76.93
69127;BME280;56688;50.234;19.292;2023-04-02T10:58:30;98221.32;;;6.22;76.96
69127;BME280;56688;50.234;19.292;2023-04-02T11:01:04;98223.10;;;6.20;76.74
69127;BME280;56688;50.234;19.292;2023-04-02T11:03:35;98222.98;;;6.16;77.02
69127;BME280;56688;50.234;19.292;2023-04-02T11:08:47;98229.51;;;6.13;76.48
69127;BME280;56688;50.234;19.292;2023-04-02T11:11:19;98231.89;;;6.10;76.23
69127;BME280;56688;50.234;19.292;2023-04-02T11:13:55;98240.18;;;6.14;76.90
69127;BME280;56688;50.234;19.292;2023-04-02T11:16:23;98240.77;;;6.22;76.58
69127;BME280;56688;50.234;19.292;2023-04-02T11:29:39;98258.06;;;6.43;75.94
69127;BME280;56688;50.234;19.292;2023-04-02T11:44:58;98273.70;;;6.52;74.53
69127;BME280;56688;50.234;19.292;2023-04-02T11:47:27;98273.32;;;6.52;74.17
69127;BME280;56688;50.234;19.292;2023-04-02T11:49:58;98275.56;;;6.51;74.16
69127;BME280;56688;50.234;19.292;2023-04-02T11:54:59;98280.26;;;6.47;74.00
69127;BME280;56688;50.234;19.292;2023-04-02T11:57:45;98281.86;;;6.44;74.12
69127;BME280;56688;50.234;19.292;2023-04-02T12:03:24;98286.02;;;6.46;74.68
69127;BME280;56688;50.234;19.292;2023-04-02T12:06:04;98292.52;;;6.43;74.89
69127;BME280;56688;50.234;19.292;2023-04-02T12:08:50;98295.80;;;6.45;75.08
69127;BME280;56688;50.234;19.292;2023-04-02T12:11:33;98298.34;;;6.44;74.52
69127;BME280;56688;50.234;19.292;2023-04-02T12:16:48;98299.11;;;6.40;74.01
69127;BME280;56688;50.234;19.292;2023-04-02T12:19:15;98300.49;;;6.40;73.91
69127;BME280;56688;50.234;19.292;2023-04-02T12:21:44;98303.25;;;6.47;73.70
69127;BME280;56688;50.234;19.292;2023-04-02T12:24:19;98305.63;;;6.58;73.95
69127;BME280;56688;50.234;19.292;2023-04-02T12:26:47;98307.73;;;6.67;74.44
69127;BME280;56688;50.234;19.292;2023-04-02T12:29:29;98312.86;;;6.74;73.89
69127;BME280;56688;50.234;19.292;2023-04-02T12:31:57;98314.52;;;6.75;73.46
69127;BME280;56688;50.234;19.292;2023-04-02T12:34:27;98318.53;;;6.74;72.80
69127;BME280;56688;50.234;19.292;2023-04-02T12:36:58;98323.45;;;6.78;72.86
69127;BME280;56688;50.234;19.292;2023-04-02T12:39:25;98320.99;;;6.79;72.52
69127;BME280;56688;50.234;19.292;2023-04-02T12:41:55;98324.11;;;6.80;71.93
69127;BME280;56688;50.234;19.292;2023-04-02T12:44:25;98323.91;;;6.80;71.72
69127;BME280;56688;50.234;19.292;2023-04-02T12:46:53;98326.38;;;6.75;71.89
69127;BME280;56688;50.234;19.292;2023-04-02T12:52:11;98326.48;;;6.69;72.06
69127;BME280;56688;50.234;19.292;2023-04-02T12:54:45;98329.36;;;6.64;72.01
69127;BME280;56688;50.234;19.292;2023-04-02T12:57:31;98333.79;;;6.59;72.45
69127;BME280;56688;50.234;19.292;2023-04-02T13:00:02;98337.77;;;6.53;72.60
69127;BME280;56688;50.234;19.292;2023-04-02T13:05:35;98350.16;;;6.39;72.63
69127;BME280;56688;50.234;19.292;2023-04-02T13:08:04;98346.89;;;6.35;72.88
69127;BME280;56688;50.234;19.292;2023-04-02T13:10:31;98354.96;;;6.44;73.16
69127;BME280;56688;50.234;19.292;2023-04-02T13:13:00;98354.57;;;6.54;72.98
69127;BME280;56688;50.234;19.292;2023-04-02T13:15:30;98351.27;;;6.61;72.80
69127;BME280;56688;50.234;19.292;2023-04-02T13:18:21;98355.27;;;6.63;72.52
69127;BME280;56688;50.234;19.292;2023-04-02T13:20:57;98355.28;;;6.65;71.99
69127;BME280;56688;50.234;19.292;2023-04-02T13:25:53;98368.34;;;6.51;71.68
69127;BME280;56688;50.234;19.292;2023-04-02T13:28:20;98369.00;;;6.46;71.95
69127;BME280;56688;50.234;19.292;2023-04-02T13:30:47;98377.23;;;6.45;72.04
69127;BME280;56688;50.234;19.292;2023-04-02T13:33:14;98378.98;;;6.39;71.72
69127;BME280;56688;50.234;19.292;2023-04-02T13:35:42;98381.23;;;6.33;72.51
69127;BME280;56688;50.234;19.292;2023-04-02T13:38:10;98385.08;;;6.30;72.87
69127;BME280;56688;50.234;19.292;2023-04-02T13:40:37;98385.92;;;6.28;72.81
69127;BME280;56688;50.234;19.292;2023-04-02T13:43:05;98387.52;;;6.27;73.05
69127;BME280;56688;50.234;19.292;2023-04-02T13:45:36;98390.52;;;6.27;73.02
69127;BME280;56688;50.234;19.292;2023-04-02T13:48:04;98393.18;;;6.25;73.54
69127;BME280;56688;50.234;19.292;2023-04-02T13:50:33;98397.44;;;6.19;73.37
69127;BME280;56688;50.234;19.292;2023-04-02T13:53:06;98403.63;;;6.10;73.64
69127;BME280;56688;50.234;19.292;2023-04-02T13:55:38;98403.52;;;6.03;73.75
69127;BME280;56688;50.234;19.292;2023-04-02T13:58:06;98408.45;;;6.01;74.28
69127;BME280;56688;50.234;19.292;2023-04-02T14:00:35;98411.19;;;6.06;74.36
69127;BME280;56688;50.234;19.292;2023-04-02T14:03:15;98412.18;;;6.08;74.29
69127;BME280;56688;50.234;19.292;2023-04-02T14:16:37;98431.34;;;5.83;73.34
69127;BME280;56688;50.234;19.292;2023-04-02T14:19:20;98430.75;;;5.80;73.54
69127;BME280;56688;50.234;19.292;2023-04-02T14:21:58;98433.90;;;5.79;73.48
69127;BME280;56688;50.234;19.292;2023-04-02T14:27:37;98433.67;;;5.80;73.08
69127;BME280;56688;50.234;19.292;2023-04-02T14:35:28;98442.28;;;5.85;73.25
69127;BME280;56688;50.234;19.292;2023-04-02T14:40:49;98448.02;;;5.84;73.16
69127;BME280;56688;50.234;19.292;2023-04-02T14:43:36;98451.63;;;5.84;72.78
69127;BME280;56688;50.234;19.292;2023-04-02T14:46:07;98453.28;;;5.85;72.71
69127;BME280;56688;50.234;19.292;2023-04-02T14:48:43;98453.55;;;5.86;72.55
69127;BME280;56688;50.234;19.292;2023-04-02T14:51:23;98459.05;;;5.85;72.11
69127;BME280;56688;50.234;19.292;2023-04-02T14:56:32;98466.32;;;5.82;72.48
69127;BME280;56688;50.234;19.292;2023-04-02T14:59:20;98464.73;;;5.74;72.04
69127;BME280;56688;50.234;19.292;2023-04-02T15:01:53;98468.66;;;5.66;71.91
69127;BME280;56688;50.234;19.292;2023-04-02T15:04:28;98469.08;;;5.62;71.92
69127;BME280;56688;50.234;19.292;2023-04-02T15:07:02;98475.01;;;5.62;72.27
69127;BME280;56688;50.234;19.292;2023-04-02T15:09:34;98479.65;;;5.64;72.10
69127;BME280;56688;50.234;19.292;2023-04-02T15:12:08;98477.52;;;5.64;72.43
69127;BME280;56688;50.234;19.292;2023-04-02T15:14:44;98481.64;;;5.62;72.27
69127;BME280;56688;50.234;19.292;2023-04-02T15:17:13;98478.45;;;5.61;71.90
69127;BME280;56688;50.234;19.292;2023-04-02T15:19:40;98483.97;;;5.60;71.96
69127;BME280;56688;50.234;19.292;2023-04-02T15:30:02;98501.09;;;5.67;71.64
69127;BME280;56688;50.234;19.292;2023-04-02T15:37:44;98506.77;;;5.62;71.48
69127;BME280;56688;50.234;19.292;2023-04-02T15:48:48;98522.20;;;5.54;71.98
69127;BME280;56688;50.234;19.292;2023-04-02T15:59:47;98539.27;;;5.53;71.05
69127;BME280;56688;50.234;19.292;2023-04-02T16:02:38;98539.30;;;5.54;71.10
69127;BME280;56688;50.234;19.292;2023-04-02T16:10:34;98554.64;;;5.48;70.98
69127;BME280;56688;50.234;19.292;2023-04-02T16:16:12;98558.00;;;5.39;71.11
69127;BME280;56688;50.234;19.292;2023-04-02T16:18:59;98570.63;;;5.40;71.70
69127;BME280;56688;50.234;19.292;2023-04-02T16:21:32;98569.67;;;5.37;71.57
69127;BME280;56688;50.234;19.292;2023-04-02T16:24:00;98572.02;;;5.35;71.78
69127;BME280;56688;50.234;19.292;2023-04-02T16:29:37;98577.04;;;5.28;71.47
69127;BME280;56688;50.234;19.292;2023-04-02T16:35:31;98583.41;;;5.21;71.22
69127;BME280;56688;50.234;19.292;2023-04-02T16:40:44;98587.71;;;5.17;71.61
69127;BME280;56688;50.234;19.292;2023-04-02T16:49:16;98599.35;;;5.07;71.48
69127;BME280;56688;50.234;19.292;2023-04-02T16:51:51;98602.77;;;5.02;71.63
69127;BME280;56688;50.234;19.292;2023-04-02T16:59:53;98615.41;;;4.96;72.00
69127;BME280;56688;50.234;19.292;2023-04-02T17:02:28;98616.67;;;4.92;71.99
69127;BME280;56688;50.234;19.292;2023-04-02T17:11:01;98625.26;;;4.82;72.48
69127;BME280;56688;50.234;19.292;2023-04-02T17:13:40;98630.44;;;4.78;72.13
69127;BME280;56688;50.234;19.292;2023-04-02T17:16:12;98631.48;;;4.74;72.23
69127;BME280;56688;50.234;19.292;2023-04-02T17:18:46;98637.21;;;4.71;72.38